createdAt,value
2022-08-17T00:00:34.461Z,75.27
2022-08-17T00:01:40.902Z,75.31
2022-08-17T00:02:32.172Z,75.47
2022-08-17T00:03:32.096Z,75.41
2022-08-17T00:04:32.103Z,75.41
2022-08-17T00:05:32.085Z,75.60
2022-08-17T00:06:32.071Z,75.47
2022-08-17T00:07:32.101Z,75.57
2022-08-17T00:08:32.028Z,75.57
2022-08-17T00:09:32.317Z,75.37
2022-08-17T00:10:32.407Z,75.47
2022-08-17T00:11:32.053Z,75.57
2022-08-17T00:12:42.766Z,75.57
2022-08-17T00:13:32.013Z,75.71
2022-08-17T00:14:31.981Z,75.71
2022-08-17T00:15:31.965Z,75.91
2022-08-17T00:16:56.467Z,75.91
2022-08-17T00:17:31.978Z,76.11
2022-08-17T00:19:01.268Z,76.01
2022-08-17T00:19:31.963Z,76.11
2022-08-17T00:20:34.796Z,76.21
2022-08-17T00:22:14.761Z,76.41
2022-08-17T00:22:40.416Z,76.31
2022-08-17T00:23:31.880Z,76.31
2022-08-17T00:24:31.868Z,76.31
2022-08-17T00:25:31.887Z,76.51
2022-08-17T00:26:34.549Z,76.61
2022-08-17T00:27:31.875Z,76.61
2022-08-17T00:28:33.368Z,76.71
2022-08-17T00:29:32.086Z,76.91
2022-08-17T00:30:31.810Z,77.01
2022-08-17T00:31:31.920Z,76.91
2022-08-17T00:33:15.572Z,76.91
2022-08-17T00:33:31.840Z,77.31
2022-08-17T00:34:31.833Z,77.31
2022-08-17T00:35:31.750Z,77.31
2022-08-17T00:36:31.747Z,77.51
2022-08-17T00:37:31.791Z,77.72
2022-08-17T00:38:31.714Z,77.91
2022-08-17T00:39:31.855Z,77.91
2022-08-17T00:40:40.680Z,78.02
2022-08-17T00:41:31.678Z,78.02
2022-08-17T00:42:31.677Z,78.25
2022-08-17T00:43:31.715Z,78.31
2022-08-17T00:44:31.655Z,78.35
2022-08-17T00:45:31.633Z,78.45
2022-08-17T00:46:31.676Z,78.75
2022-08-17T00:47:31.908Z,78.75
2022-08-17T00:48:31.622Z,78.75
2022-08-17T00:49:31.637Z,78.75
2022-08-17T00:50:31.587Z,78.96
2022-08-17T00:51:31.615Z,79.16
2022-08-17T00:52:31.566Z,79.25
2022-08-17T00:53:31.570Z,79.46
2022-08-17T00:54:31.844Z,79.25
2022-08-17T00:55:31.567Z,79.16
2022-08-17T00:56:31.535Z,79.36
2022-08-17T00:57:31.516Z,79.25
2022-08-17T00:58:36.276Z,79.25
2022-08-17T00:59:31.525Z,79.66
2022-08-17T01:00:31.507Z,79.55
2022-08-17T01:01:31.866Z,79.75
2022-08-17T01:02:34.375Z,79.86
2022-08-17T01:03:31.456Z,79.75
2022-08-17T01:04:31.437Z,79.75
2022-08-17T01:05:31.440Z,79.86
2022-08-17T01:06:31.421Z,80.06
2022-08-17T01:07:31.452Z,79.96
2022-08-17T01:08:31.683Z,80.06
2022-08-17T01:09:31.384Z,80.16
2022-08-17T01:10:58.345Z,80.16
2022-08-17T01:11:31.371Z,80.26
2022-08-17T01:12:31.362Z,80.26
2022-08-17T01:13:32.813Z,80.46
2022-08-17T01:14:31.344Z,80.36
2022-08-17T01:15:31.618Z,80.60
2022-08-17T01:16:31.323Z,80.56
2022-08-17T01:17:31.354Z,80.70
2022-08-17T01:18:31.311Z,80.56
2022-08-17T01:19:31.340Z,80.50
2022-08-17T01:20:31.285Z,80.70
2022-08-17T01:21:31.262Z,80.80
2022-08-17T01:22:31.562Z,80.70
2022-08-17T01:23:31.235Z,81.00
2022-08-17T01:24:31.231Z,80.90
2022-08-17T01:25:31.245Z,80.96
2022-08-17T01:26:31.246Z,81.10
2022-08-17T01:27:31.189Z,81.10
2022-08-17T01:28:33.600Z,81.00
2022-08-17T01:29:31.184Z,81.20
2022-08-17T01:30:56.882Z,81.30
2022-08-17T01:31:31.192Z,81.40
2022-08-17T01:32:31.155Z,81.40
2022-08-17T01:33:31.151Z,81.50
2022-08-17T01:34:42.715Z,81.50
2022-08-17T01:35:31.126Z,81.40
2022-08-17T01:36:31.099Z,81.50
2022-08-17T01:37:31.131Z,81.50
2022-08-17T01:38:31.095Z,81.30
2022-08-17T01:39:31.145Z,81.50
2022-08-17T01:40:31.059Z,81.60
2022-08-17T01:41:31.314Z,81.40
2022-08-17T01:42:31.040Z,81.40
2022-08-17T01:43:31.076Z,81.30
2022-08-17T01:44:31.009Z,81.50
2022-08-17T01:45:31.042Z,81.50
2022-08-17T01:46:30.994Z,81.50
2022-08-17T01:47:31.156Z,81.50
2022-08-17T01:48:31.279Z,81.60
2022-08-17T01:49:31.005Z,81.60
2022-08-17T01:50:30.949Z,81.70
2022-08-17T01:51:30.944Z,81.90
2022-08-17T01:52:30.954Z,81.80
2022-08-17T01:53:30.923Z,82.00
2022-08-17T01:54:30.906Z,81.90
2022-08-17T01:55:31.254Z,81.90
2022-08-17T01:56:30.887Z,82.00
2022-08-17T01:57:30.883Z,82.00
2022-08-17T01:58:30.865Z,82.10
2022-08-17T01:59:30.860Z,82.14
2022-08-17T02:00:59.425Z,82.24
2022-08-17T02:01:30.938Z,82.24
2022-08-17T02:02:31.669Z,82.34
2022-08-17T02:03:30.829Z,82.45
2022-08-17T02:04:30.806Z,82.54
2022-08-17T02:05:30.818Z,82.64
2022-08-17T02:06:31.272Z,82.75
2022-08-17T02:07:30.847Z,82.75
2022-08-17T02:08:37.341Z,82.84
2022-08-17T02:09:30.767Z,83.04
2022-08-17T02:10:33.904Z,83.25
2022-08-17T02:11:30.734Z,83.15
2022-08-17T02:12:37.762Z,83.25
2022-08-17T02:13:30.762Z,83.29
2022-08-17T02:14:30.713Z,83.49
2022-08-17T02:15:30.984Z,83.69
2022-08-17T02:16:37.687Z,83.79
2022-08-17T02:17:30.691Z,83.89
2022-08-17T02:18:30.703Z,83.89
2022-08-17T02:19:30.691Z,83.89
2022-08-17T02:20:41.181Z,83.99
2022-08-17T02:21:30.646Z,84.09
2022-08-17T02:22:30.616Z,84.09
2022-08-17T02:23:30.637Z,84.49
2022-08-17T02:25:00.522Z,84.74
2022-08-17T02:25:30.625Z,84.83
2022-08-17T02:26:30.572Z,84.94
2022-08-17T02:27:30.850Z,85.03
2022-08-17T02:28:30.568Z,85.14
2022-08-17T02:29:30.547Z,85.24
2022-08-17T02:30:59.531Z,85.24
2022-08-17T02:31:30.577Z,85.24
2022-08-17T02:32:30.510Z,85.24
2022-08-17T02:33:41.598Z,85.33
2022-08-17T02:34:30.491Z,85.44
2022-08-17T02:35:30.503Z,85.44
2022-08-17T02:36:30.462Z,85.53
2022-08-17T02:37:30.516Z,85.53
2022-08-17T02:38:30.446Z,85.58
2022-08-17T02:39:30.777Z,85.58
2022-08-17T02:40:36.135Z,85.64
2022-08-17T02:41:30.437Z,85.78
2022-08-17T02:42:30.395Z,85.88
2022-08-17T02:43:30.437Z,85.98
2022-08-17T02:44:39.390Z,85.98
2022-08-17T02:45:30.390Z,86.18
2022-08-17T02:46:30.657Z,86.18
2022-08-17T02:47:30.346Z,86.08
2022-08-17T02:48:31.502Z,86.18
2022-08-17T02:49:30.427Z,86.18
2022-08-17T02:50:30.306Z,85.98
2022-08-17T02:51:30.350Z,86.18
2022-08-17T02:52:42.959Z,86.28
2022-08-17T02:53:35.530Z,86.18
2022-08-17T02:54:39.618Z,86.28
2022-08-17T02:55:30.324Z,86.38
2022-08-17T02:56:30.268Z,86.48
2022-08-17T02:57:30.266Z,86.72
2022-08-17T02:58:35.522Z,86.68
2022-08-17T02:59:30.230Z,86.72
2022-08-17T03:00:30.229Z,86.93
2022-08-17T03:01:30.288Z,87.02
2022-08-17T03:02:30.183Z,87.13
2022-08-17T03:03:30.188Z,87.33
2022-08-17T03:04:30.197Z,87.43
2022-08-17T03:05:30.504Z,87.43
2022-08-17T03:06:30.140Z,87.63
2022-08-17T03:07:30.180Z,87.63
2022-08-17T03:08:30.144Z,87.83
2022-08-17T03:09:30.127Z,87.83
2022-08-17T03:10:30.106Z,87.83
2022-08-17T03:11:30.095Z,87.83
2022-08-17T03:12:30.075Z,87.83
2022-08-17T03:13:30.206Z,87.73
2022-08-17T03:14:30.077Z,87.73
2022-08-17T03:15:30.050Z,87.73
2022-08-17T03:16:30.045Z,87.73
2022-08-17T03:17:30.309Z,87.73
2022-08-17T03:18:30.012Z,87.93
2022-08-17T03:19:30.051Z,88.03
2022-08-17T03:20:30.014Z,88.13
2022-08-17T03:21:29.986Z,88.23
2022-08-17T03:22:36.774Z,88.38
2022-08-17T03:23:30.397Z,88.38
2022-08-17T03:24:29.961Z,88.38
2022-08-17T03:25:29.973Z,88.38
2022-08-17T03:26:30.002Z,88.48
2022-08-17T03:27:29.966Z,88.68
2022-08-17T03:28:29.912Z,88.68
2022-08-17T03:29:30.207Z,88.68
2022-08-17T03:30:29.920Z,88.68
2022-08-17T03:31:29.926Z,88.68
2022-08-17T03:32:29.868Z,88.68
2022-08-17T03:33:29.879Z,88.58
2022-08-17T03:34:29.881Z,88.68
2022-08-17T03:35:29.874Z,88.68
2022-08-17T03:36:30.104Z,88.68
2022-08-17T03:37:29.870Z,88.78
2022-08-17T03:38:29.800Z,88.78
2022-08-17T03:39:29.874Z,88.88
2022-08-17T03:40:39.852Z,88.88
2022-08-17T03:41:29.786Z,88.98
2022-08-17T03:42:32.382Z,89.08
2022-08-17T03:43:30.083Z,89.43
2022-08-17T03:44:29.741Z,89.43
2022-08-17T03:45:29.738Z,89.53
2022-08-17T03:46:34.988Z,89.53
2022-08-17T03:47:29.725Z,89.83
2022-08-17T03:48:29.711Z,89.93
2022-08-17T03:49:29.719Z,89.93
2022-08-17T03:50:29.961Z,89.93
2022-08-17T03:51:29.682Z,89.93
2022-08-17T03:52:29.657Z,89.83
2022-08-17T03:53:29.713Z,90.03
2022-08-17T03:54:29.633Z,90.03
2022-08-17T03:55:36.083Z,90.23
2022-08-17T03:56:29.630Z,90.23
2022-08-17T03:57:29.896Z,90.13
2022-08-17T03:58:29.593Z,90.13
2022-08-17T03:59:29.596Z,90.13
2022-08-17T04:00:29.590Z,90.13
2022-08-17T04:01:29.661Z,90.13
2022-08-17T04:02:29.547Z,90.13
2022-08-17T04:03:29.558Z,90.13
2022-08-17T04:04:29.817Z,90.03
2022-08-17T04:05:29.520Z,90.03
2022-08-17T04:06:29.535Z,90.13
2022-08-17T04:07:29.568Z,90.13
2022-08-17T04:08:29.528Z,90.13
2022-08-17T04:09:29.507Z,90.33
2022-08-17T04:10:29.473Z,90.23
2022-08-17T04:11:29.777Z,90.23
2022-08-17T04:12:29.455Z,90.13
2022-08-17T04:13:29.481Z,90.13
2022-08-17T04:14:29.447Z,90.33
2022-08-17T04:15:29.432Z,90.33
2022-08-17T04:16:29.399Z,90.23
2022-08-17T04:17:29.426Z,90.13
2022-08-17T04:18:29.664Z,90.03
2022-08-17T04:19:29.442Z,89.83
2022-08-17T04:20:29.364Z,89.83
2022-08-17T04:21:29.381Z,89.83
2022-08-17T04:22:30.773Z,89.73
2022-08-17T04:23:29.336Z,89.63
2022-08-17T04:24:29.322Z,89.63
2022-08-17T04:25:29.624Z,89.73
2022-08-17T04:26:53.232Z,89.73
2022-08-17T04:27:29.296Z,89.53
2022-08-17T04:28:29.278Z,89.32
2022-08-17T04:29:29.284Z,89.23
2022-08-17T04:30:29.257Z,89.03
2022-08-17T04:31:29.276Z,89.12
2022-08-17T04:33:04.597Z,89.23
2022-08-17T04:33:29.252Z,89.12
2022-08-17T04:34:29.221Z,89.23
2022-08-17T04:35:29.201Z,89.12
2022-08-17T04:36:29.180Z,89.03
2022-08-17T04:37:29.216Z,88.92
2022-08-17T04:38:29.169Z,88.68
2022-08-17T04:39:29.202Z,88.28
2022-08-17T04:40:29.137Z,87.98
2022-08-17T04:41:29.142Z,87.47
2022-08-17T04:42:29.154Z,87.37
2022-08-17T04:43:29.153Z,87.13
2022-08-17T04:44:37.599Z,87.13
2022-08-17T04:45:32.213Z,87.23
2022-08-17T04:46:29.071Z,87.13
2022-08-17T04:47:29.083Z,87.02
2022-08-17T04:48:36.499Z,86.93
2022-08-17T04:49:29.087Z,86.72
2022-08-17T04:50:29.038Z,86.72
2022-08-17T04:51:29.305Z,86.72
2022-08-17T04:52:32.249Z,86.52
2022-08-17T04:53:29.012Z,86.63
2022-08-17T04:54:28.985Z,86.32
2022-08-17T04:55:29.031Z,86.52
2022-08-17T04:56:28.987Z,86.63
2022-08-17T04:57:28.977Z,86.32
2022-08-17T04:58:28.983Z,86.02
2022-08-17T04:59:28.975Z,85.92
2022-08-17T05:00:28.934Z,85.72
2022-08-17T05:01:29.022Z,85.68
2022-08-17T05:02:28.906Z,85.58
2022-08-17T05:03:29.193Z,84.88
2022-08-17T05:04:33.924Z,84.97
2022-08-17T05:05:28.896Z,85.58
2022-08-17T05:06:28.865Z,85.08
2022-08-17T05:07:31.598Z,85.08
2022-08-17T05:08:28.846Z,85.08
2022-08-17T05:09:28.831Z,85.28
2022-08-17T05:10:28.812Z,85.38
2022-08-17T05:11:28.819Z,85.48
2022-08-17T05:12:28.792Z,85.48
2022-08-17T05:13:28.822Z,85.48
2022-08-17T05:14:33.223Z,85.17
2022-08-17T05:15:28.821Z,84.77
2022-08-17T05:16:28.756Z,84.77
2022-08-17T05:17:28.756Z,84.88
2022-08-17T05:18:28.758Z,84.88
2022-08-17T05:19:28.768Z,84.88
2022-08-17T05:20:28.712Z,84.74
2022-08-17T05:21:28.997Z,84.43
2022-08-17T05:22:28.695Z,84.03
2022-08-17T05:23:35.532Z,83.63
2022-08-17T05:24:39.173Z,83.63
2022-08-17T05:25:28.726Z,83.73
2022-08-17T05:26:29.402Z,83.43
2022-08-17T05:27:29.301Z,83.53
2022-08-17T05:28:28.648Z,82.82
2022-08-17T05:29:35.567Z,82.72
2022-08-17T05:30:28.610Z,82.52
2022-08-17T05:31:28.748Z,82.78
2022-08-17T05:32:39.027Z,82.68
2022-08-17T05:33:28.585Z,82.38
2022-08-17T05:34:28.845Z,82.68
2022-08-17T05:35:28.578Z,82.48
2022-08-17T05:36:42.267Z,82.48
2022-08-17T05:37:28.585Z,82.18
2022-08-17T05:38:28.533Z,82.28
2022-08-17T05:39:28.556Z,82.14
2022-08-17T05:40:28.494Z,82.34
2022-08-17T05:41:28.766Z,81.94
2022-08-17T05:42:28.482Z,81.94
2022-08-17T05:43:28.498Z,81.84
2022-08-17T05:44:28.459Z,81.64
2022-08-17T05:45:54.916Z,81.84
2022-08-17T05:46:28.435Z,81.64
2022-08-17T05:47:28.437Z,81.54
2022-08-17T05:48:35.688Z,81.50
2022-08-17T05:49:28.440Z,81.30
2022-08-17T05:50:29.899Z,80.50
2022-08-17T05:51:28.381Z,80.19
2022-08-17T05:52:28.374Z,80.36
2022-08-17T05:53:28.353Z,80.36
2022-08-17T05:54:28.354Z,79.55
2022-08-17T05:55:28.662Z,79.66
2022-08-17T05:56:29.771Z,79.46
2022-08-17T05:57:28.313Z,79.16
2022-08-17T05:58:28.319Z,78.92
2022-08-17T05:59:28.285Z,78.72
2022-08-17T06:00:30.623Z,78.61
2022-08-17T06:01:28.365Z,78.38
2022-08-17T06:02:28.558Z,78.38
2022-08-17T06:03:28.244Z,76.98
2022-08-17T06:04:28.258Z,76.94
2022-08-17T06:05:28.245Z,76.43
2022-08-17T06:06:31.332Z,75.90
2022-08-17T06:07:28.261Z,75.80
2022-08-17T06:08:28.209Z,76.04
2022-08-17T06:09:33.420Z,76.54
2022-08-17T06:10:28.215Z,75.30
2022-08-17T06:11:28.183Z,75.30
2022-08-17T06:12:28.164Z,75.20
2022-08-17T06:13:28.169Z,75.30
2022-08-17T06:14:28.138Z,75.70
2022-08-17T06:15:28.124Z,75.90
2022-08-17T06:16:34.238Z,75.30
2022-08-17T06:17:28.159Z,74.96
2022-08-17T06:18:28.139Z,75.16
2022-08-17T06:19:28.125Z,74.73
2022-08-17T06:20:28.111Z,74.53
2022-08-17T06:21:32.104Z,73.99
2022-08-17T06:22:28.050Z,74.09
2022-08-17T06:23:28.323Z,73.69
2022-08-17T06:24:28.039Z,73.39
2022-08-17T06:25:28.095Z,73.29
2022-08-17T06:26:31.249Z,73.59
2022-08-17T06:27:28.028Z,73.79
2022-08-17T06:28:27.993Z,73.69
2022-08-17T06:29:28.625Z,72.76
2022-08-17T06:30:28.285Z,72.62
2022-08-17T06:31:27.996Z,72.02
2022-08-17T06:32:27.979Z,71.62
2022-08-17T06:33:27.940Z,71.22
2022-08-17T06:34:27.927Z,71.03
2022-08-17T06:35:31.856Z,71.12
2022-08-17T06:36:27.915Z,70.03
2022-08-17T06:37:27.964Z,70.53
2022-08-17T06:38:38.026Z,71.26
2022-08-17T06:39:27.905Z,70.96
2022-08-17T06:40:27.869Z,71.46
2022-08-17T06:41:27.850Z,71.56
2022-08-17T06:42:58.809Z,71.36
2022-08-17T06:43:27.859Z,71.56
2022-08-17T06:44:43.265Z,71.09
2022-08-17T06:45:27.810Z,71.09
2022-08-17T06:46:27.791Z,70.79
2022-08-17T06:47:28.135Z,70.79
2022-08-17T06:48:27.782Z,70.66
2022-08-17T06:49:27.826Z,70.56
2022-08-17T06:50:27.802Z,70.06
2022-08-17T06:51:27.776Z,70.16
2022-08-17T06:52:45.507Z,70.12
2022-08-17T06:53:27.731Z,69.13
2022-08-17T06:54:28.045Z,69.23
2022-08-17T06:55:27.727Z,69.02
2022-08-17T06:56:53.119Z,68.89
2022-08-17T06:57:27.705Z,68.70
2022-08-17T06:58:29.461Z,68.59
2022-08-17T06:59:35.677Z,68.79
2022-08-17T07:00:27.990Z,68.49
2022-08-17T07:01:27.714Z,68.10
2022-08-17T07:02:29.523Z,68.16
2022-08-17T07:03:27.685Z,67.53
2022-08-17T07:04:27.635Z,66.10
2022-08-17T07:05:27.615Z,65.61
2022-08-17T07:06:27.609Z,65.67
2022-08-17T07:07:27.907Z,65.97
2022-08-17T07:08:30.548Z,65.14
2022-08-17T07:09:27.563Z,64.54
2022-08-17T07:10:27.550Z,64.25
2022-08-17T07:11:27.535Z,64.42
2022-08-17T07:12:27.533Z,65.41
2022-08-17T07:13:27.560Z,64.28
2022-08-17T07:14:27.788Z,63.09
2022-08-17T07:15:27.543Z,70.42
2022-08-17T07:16:27.503Z,68.93
2022-08-17T07:17:46.955Z,71.55
2022-08-17T07:18:27.482Z,66.91
2022-08-17T07:19:27.488Z,65.51
2022-08-17T07:20:27.488Z,68.60
2022-08-17T07:21:27.729Z,63.92
2022-08-17T07:22:27.470Z,65.98
2022-08-17T07:23:27.437Z,63.98
2022-08-17T07:24:29.601Z,63.36
2022-08-17T07:25:27.463Z,62.16
2022-08-17T07:26:27.442Z,61.57
2022-08-17T07:27:27.389Z,62.26
2022-08-17T07:28:27.657Z,62.63
2022-08-17T07:29:27.356Z,61.71
2022-08-17T07:30:27.361Z,60.22
2022-08-17T07:31:27.394Z,60.69
2022-08-17T07:32:27.349Z,59.36
2022-08-17T07:33:27.332Z,59.66
2022-08-17T07:34:27.336Z,59.27
2022-08-17T07:35:37.541Z,59.23
2022-08-17T07:36:30.075Z,58.34
2022-08-17T07:37:27.358Z,59.01
2022-08-17T07:38:27.314Z,57.69
2022-08-17T07:39:27.345Z,57.59
2022-08-17T07:40:27.393Z,57.59
2022-08-17T07:41:27.250Z,56.11
2022-08-17T07:42:27.280Z,56.51
2022-08-17T07:43:29.588Z,55.64
2022-08-17T07:44:27.232Z,56.73
2022-08-17T07:45:27.215Z,57.03
2022-08-17T07:46:27.228Z,56.73
2022-08-17T07:47:27.232Z,56.53
2022-08-17T07:48:27.490Z,56.23
2022-08-17T07:49:27.228Z,56.83
2022-08-17T07:50:27.258Z,57.62
2022-08-17T07:51:27.168Z,56.73
2022-08-17T07:52:51.099Z,56.93
2022-08-17T07:53:27.287Z,56.95
2022-08-17T07:54:27.142Z,56.95
2022-08-17T07:55:27.656Z,57.55
2022-08-17T07:56:27.113Z,57.85
2022-08-17T07:57:30.040Z,57.68
2022-08-17T07:58:27.091Z,58.07
2022-08-17T07:59:27.243Z,58.37
2022-08-17T08:00:32.325Z,58.47
2022-08-17T08:01:27.153Z,58.77
2022-08-17T08:02:31.988Z,58.97
2022-08-17T08:03:27.065Z,58.70
2022-08-17T08:04:49.908Z,60.16
2022-08-17T08:05:46.713Z,59.07
2022-08-17T08:06:27.051Z,59.27
2022-08-17T08:07:27.040Z,59.07
2022-08-17T08:08:27.309Z,58.87
2022-08-17T08:09:26.985Z,59.17
2022-08-17T08:10:27.003Z,58.47
2022-08-17T08:11:26.963Z,58.77
2022-08-17T08:12:32.689Z,58.87
2022-08-17T08:13:27.017Z,58.47
2022-08-17T08:14:28.268Z,58.47
2022-08-17T08:15:26.919Z,58.94
2022-08-17T08:16:26.926Z,58.15
2022-08-17T08:17:26.910Z,58.04
2022-08-17T08:18:54.392Z,58.17
2022-08-17T08:19:26.935Z,58.07
2022-08-17T08:20:52.386Z,57.68
2022-08-17T08:21:26.879Z,57.87
2022-08-17T08:22:26.840Z,57.98
2022-08-17T08:23:26.837Z,58.27
2022-08-17T08:24:31.093Z,57.95
2022-08-17T08:25:28.692Z,58.34
2022-08-17T08:26:26.809Z,57.85
2022-08-17T08:27:26.789Z,57.95
2022-08-17T08:28:26.817Z,57.95
2022-08-17T08:29:26.764Z,57.85
2022-08-17T08:30:26.756Z,57.95
2022-08-17T08:31:26.782Z,58.25
2022-08-17T08:32:27.018Z,57.48
2022-08-17T08:33:26.740Z,57.98
2022-08-17T08:34:58.678Z,57.98
2022-08-17T08:35:26.721Z,58.47
2022-08-17T08:37:02.464Z,58.47
2022-08-17T08:37:34.562Z,58.57
2022-08-17T08:38:26.692Z,58.04
2022-08-17T08:39:26.696Z,58.25
2022-08-17T08:40:26.649Z,57.95
2022-08-17T08:41:26.654Z,57.95
2022-08-17T08:42:26.912Z,58.04
2022-08-17T08:43:26.662Z,57.65
2022-08-17T08:45:00.883Z,57.85
2022-08-17T08:45:26.620Z,57.45
2022-08-17T08:46:26.600Z,57.72
2022-08-17T08:47:26.576Z,58.02
2022-08-17T08:48:53.855Z,57.13
2022-08-17T08:49:51.922Z,56.11
2022-08-17T08:50:37.018Z,55.81
2022-08-17T08:51:26.583Z,55.64
2022-08-17T08:52:26.523Z,56.23
2022-08-17T08:53:26.531Z,56.63
2022-08-17T08:54:27.308Z,56.21
2022-08-17T08:55:26.526Z,56.11
2022-08-17T08:56:26.517Z,56.01
2022-08-17T08:57:32.809Z,55.68
2022-08-17T08:58:31.854Z,55.29
2022-08-17T08:59:26.493Z,54.69
2022-08-17T09:00:26.453Z,54.47
2022-08-17T09:01:26.864Z,54.57
2022-08-17T09:02:26.441Z,53.85
2022-08-17T09:03:43.830Z,53.35
2022-08-17T09:04:26.425Z,53.63
2022-08-17T09:05:26.403Z,52.64
2022-08-17T09:06:33.484Z,52.34
2022-08-17T09:07:26.482Z,52.71
2022-08-17T09:08:26.674Z,52.29
2022-08-17T09:09:26.356Z,51.99
2022-08-17T09:10:26.342Z,51.18
2022-08-17T09:11:26.369Z,50.26
2022-08-17T09:12:26.345Z,50.66
2022-08-17T09:13:26.373Z,49.48
2022-08-17T09:14:28.614Z,49.77
2022-08-17T09:15:26.574Z,49.57
2022-08-17T09:16:26.323Z,50.04
2022-08-17T09:17:26.256Z,48.96
2022-08-17T09:19:03.455Z,48.46
2022-08-17T09:19:26.311Z,48.14
2022-08-17T09:20:27.890Z,48.63
2022-08-17T09:21:26.270Z,48.63
2022-08-17T09:22:26.485Z,48.63
2022-08-17T09:23:26.194Z,47.85
2022-08-17T09:24:26.193Z,47.35
2022-08-17T09:25:26.203Z,48.34
2022-08-17T09:26:26.188Z,47.23
2022-08-17T09:27:26.197Z,47.13
2022-08-17T09:28:26.169Z,47.33
2022-08-17T09:29:26.467Z,46.81
2022-08-17T09:30:26.167Z,46.89
2022-08-17T09:31:31.303Z,46.89
2022-08-17T09:32:26.153Z,47.56
2022-08-17T09:33:26.122Z,46.55
2022-08-17T09:34:29.576Z,45.76
2022-08-17T09:35:36.696Z,45.88
2022-08-17T09:36:26.106Z,46.00
2022-08-17T09:37:26.112Z,46.30
2022-08-17T09:38:30.332Z,46.91
2022-08-17T09:39:26.147Z,46.81
2022-08-17T09:40:26.752Z,46.04
2022-08-17T09:41:26.012Z,46.76
2022-08-17T09:42:26.290Z,46.56
2022-08-17T09:43:26.025Z,47.08
2022-08-17T09:44:26.028Z,47.18
2022-08-17T09:45:25.986Z,47.65
2022-08-17T09:46:25.981Z,47.55
2022-08-17T09:47:25.977Z,46.86
2022-08-17T09:48:25.963Z,46.66
2022-08-17T09:49:26.312Z,47.82
2022-08-17T09:51:04.034Z,47.03
2022-08-17T09:51:25.915Z,47.50
2022-08-17T09:52:25.943Z,46.62
2022-08-17T09:53:25.918Z,46.32
2022-08-17T09:54:41.283Z,46.62
2022-08-17T09:55:25.918Z,46.12
2022-08-17T09:56:26.140Z,47.11
2022-08-17T09:57:30.241Z,46.72
2022-08-17T09:58:29.090Z,46.54
2022-08-17T09:59:25.822Z,47.13
2022-08-17T10:00:25.832Z,47.63
2022-08-17T10:01:25.909Z,48.59
2022-08-17T10:02:25.813Z,47.90
2022-08-17T10:03:26.168Z,47.21
2022-08-17T10:04:29.491Z,47.01
2022-08-17T10:05:25.775Z,47.60
2022-08-17T10:06:25.758Z,47.21
2022-08-17T10:07:25.822Z,47.60
2022-08-17T10:08:25.763Z,47.48
2022-08-17T10:09:25.796Z,46.79
2022-08-17T10:10:25.993Z,47.28
2022-08-17T10:11:33.893Z,47.26
2022-08-17T10:12:30.189Z,47.06
2022-08-17T10:13:25.729Z,46.57
2022-08-17T10:14:37.860Z,46.37
2022-08-17T10:15:25.670Z,46.57
2022-08-17T10:16:25.669Z,46.67
2022-08-17T10:17:25.643Z,46.57
2022-08-17T10:18:31.867Z,47.06
2022-08-17T10:19:25.724Z,47.06
2022-08-17T10:20:25.620Z,46.28
2022-08-17T10:21:25.611Z,46.77
2022-08-17T10:22:34.951Z,46.47
2022-08-17T10:23:25.604Z,46.37
2022-08-17T10:24:25.566Z,46.57
2022-08-17T10:25:37.632Z,46.79
2022-08-17T10:26:25.566Z,47.38
2022-08-17T10:27:25.550Z,47.11
2022-08-17T10:28:29.552Z,47.31
2022-08-17T10:29:25.823Z,48.10
2022-08-17T10:30:25.514Z,48.71
2022-08-17T10:31:41.017Z,48.61
2022-08-17T10:32:25.482Z,47.63
2022-08-17T10:33:25.480Z,47.53
2022-08-17T10:34:25.487Z,47.92
2022-08-17T10:35:25.478Z,48.51
2022-08-17T10:36:25.449Z,49.10
2022-08-17T10:37:25.479Z,49.60
2022-08-17T10:38:25.440Z,50.12
2022-08-17T10:39:25.461Z,49.92
2022-08-17T10:40:26.492Z,49.62
2022-08-17T10:41:25.668Z,50.02
2022-08-17T10:42:32.269Z,51.20
2022-08-17T10:43:25.418Z,50.71
2022-08-17T10:44:38.548Z,49.82
2022-08-17T10:45:25.353Z,49.43
2022-08-17T10:46:31.244Z,49.43
2022-08-17T10:47:25.332Z,48.83
2022-08-17T10:48:25.343Z,49.03
2022-08-17T10:49:25.353Z,49.33
2022-08-17T10:50:25.317Z,49.62
2022-08-17T10:51:25.291Z,49.22
2022-08-17T10:52:25.286Z,49.13
2022-08-17T10:53:25.589Z,48.93
2022-08-17T10:54:25.284Z,48.83
2022-08-17T10:55:25.291Z,48.54
2022-08-17T10:56:25.255Z,48.61
2022-08-17T10:57:25.762Z,48.71
2022-08-17T10:58:27.178Z,48.81
2022-08-17T10:59:25.232Z,49.30
2022-08-17T11:00:27.643Z,49.01
2022-08-17T11:01:25.279Z,49.20
2022-08-17T11:02:25.177Z,48.41
2022-08-17T11:03:25.167Z,48.12
2022-08-17T11:04:25.276Z,48.22
2022-08-17T11:05:25.165Z,48.12
2022-08-17T11:06:25.130Z,48.12
2022-08-17T11:07:25.179Z,48.10
2022-08-17T11:08:25.121Z,48.29
2022-08-17T11:09:25.129Z,47.60
2022-08-17T11:10:25.083Z,47.60
2022-08-17T11:11:25.071Z,48.00
2022-08-17T11:12:25.074Z,47.13
2022-08-17T11:13:25.549Z,47.60
2022-08-17T11:14:25.084Z,46.64
2022-08-17T11:15:25.070Z,47.13
2022-08-17T11:16:25.021Z,47.43
2022-08-17T11:17:25.054Z,47.82
2022-08-17T11:18:25.001Z,48.02
2022-08-17T11:19:25.055Z,46.94
2022-08-17T11:20:25.338Z,46.64
2022-08-17T11:21:24.989Z,47.33
2022-08-17T11:22:27.791Z,46.72
2022-08-17T11:23:24.951Z,47.11
2022-08-17T11:24:24.935Z,46.81
2022-08-17T11:25:24.976Z,48.00
2022-08-17T11:26:24.929Z,47.31
2022-08-17T11:27:25.398Z,47.41
2022-08-17T11:28:24.913Z,47.11
2022-08-17T11:29:24.972Z,46.91
2022-08-17T11:30:26.735Z,47.01
2022-08-17T11:31:38.923Z,46.59
2022-08-17T11:32:24.872Z,46.40
2022-08-17T11:33:24.856Z,46.10
2022-08-17T11:34:24.842Z,46.10
2022-08-17T11:35:24.829Z,47.06
2022-08-17T11:36:24.819Z,47.09
2022-08-17T11:37:24.839Z,47.38
2022-08-17T11:38:24.786Z,48.17
2022-08-17T11:39:24.890Z,47.78
2022-08-17T11:40:24.784Z,47.90
2022-08-17T11:41:24.760Z,48.00
2022-08-17T11:42:24.747Z,48.69
2022-08-17T11:43:25.375Z,47.70
2022-08-17T11:44:24.726Z,47.80
2022-08-17T11:45:32.509Z,47.31
2022-08-17T11:46:24.721Z,48.10
2022-08-17T11:47:24.703Z,48.29
2022-08-17T11:48:28.284Z,47.97
2022-08-17T11:49:24.716Z,47.48
2022-08-17T11:50:27.878Z,47.36
2022-08-17T11:51:24.691Z,46.97
2022-08-17T11:52:24.921Z,46.55
2022-08-17T11:53:24.656Z,46.06
2022-08-17T11:54:33.864Z,45.96
2022-08-17T11:55:35.494Z,45.56
2022-08-17T11:56:24.607Z,45.76
2022-08-17T11:57:24.592Z,46.35
2022-08-17T11:58:24.579Z,46.47
2022-08-17T11:59:24.575Z,46.37
2022-08-17T12:00:24.568Z,47.06
2022-08-17T12:01:24.601Z,47.88
2022-08-17T12:02:24.545Z,48.66
2022-08-17T12:03:24.634Z,48.49
2022-08-17T12:04:24.862Z,48.81
2022-08-17T12:05:24.550Z,48.81
2022-08-17T12:06:24.559Z,48.93
2022-08-17T12:07:24.572Z,49.43
2022-08-17T12:08:24.479Z,50.14
2022-08-17T12:09:24.491Z,49.84
2022-08-17T12:10:24.471Z,50.04
2022-08-17T12:11:55.159Z,50.16
2022-08-17T12:12:24.454Z,50.66
2022-08-17T12:13:30.496Z,50.66
2022-08-17T12:14:40.138Z,50.85
2022-08-17T12:15:24.438Z,51.05
2022-08-17T12:16:24.406Z,51.37
2022-08-17T12:17:41.070Z,51.57
2022-08-17T12:18:24.389Z,51.87
2022-08-17T12:19:24.419Z,51.70
2022-08-17T12:20:24.404Z,51.50
2022-08-17T12:21:24.339Z,51.99
2022-08-17T12:22:24.344Z,52.69
2022-08-17T12:23:24.342Z,53.70
2022-08-17T12:24:24.607Z,55.28
2022-08-17T12:25:24.358Z,56.69
2022-08-17T12:26:24.302Z,57.21
2022-08-17T12:27:52.992Z,58.40
2022-08-17T12:28:24.285Z,58.03
2022-08-17T12:29:35.411Z,58.33
2022-08-17T12:30:24.281Z,58.95
2022-08-17T12:31:24.573Z,58.95
2022-08-17T12:32:24.220Z,58.86
2022-08-17T12:33:25.368Z,56.68
2022-08-17T12:34:24.218Z,57.54
2022-08-17T12:35:24.217Z,56.55
2022-08-17T12:36:24.177Z,55.24
2022-08-17T12:37:24.218Z,56.02
2022-08-17T12:38:33.160Z,55.04
2022-08-17T12:39:24.862Z,56.20
2022-08-17T12:40:24.147Z,56.49
2022-08-17T12:41:24.131Z,55.77
2022-08-17T12:42:24.127Z,54.10
2022-08-17T12:43:24.150Z,53.20
2022-08-17T12:44:24.093Z,54.86
2022-08-17T12:45:24.383Z,59.31
2022-08-17T12:46:24.078Z,62.50
2022-08-17T12:47:24.067Z,63.68
2022-08-17T12:48:24.080Z,65.10
2022-08-17T12:49:24.367Z,65.63
2022-08-17T12:50:29.087Z,65.73
2022-08-17T12:51:24.044Z,65.76
2022-08-17T12:52:24.317Z,65.17